Time;durP1;ratioP1;P1;durP2;ratioP2;P2;SDS_P1;SDS_P2;PMS_P1;PMS_P2;Temp;Humidity;BMP_temperature;BMP_pressure;BME280_temperature;BME280_humidity;BME280_pressure;Samples;Min_cycle;Max_cycle;Signal;HPM_P1;HPM_P2
2022/01/01 00:02:20;;;;;;;;;;;;;;;;;;5084267;28;1114;-78
2022/01/01 00:04:49;;;;;;;;;;;;;;;;;;5062610;28;1137;-80
2022/01/01 00:07:19;;;;;;;;;;;;;;;;;;5062236;28;1290;-78
2022/01/01 00:09:44;;;;;;;;;;;;;;;;;;5043713;28;1299;-80
2022/01/01 00:12:10;;;;;;;;;;;;;;;;;;5062574;28;1969;-79
2022/01/01 00:17:45;;;;;;;;;;;;;;;;;;5080973;28;1018;-80
2022/01/01 00:20:55;;;;;;;;;;;;;;;;;;;;;
2022/01/01 00:23:30;;;;;;;;;;;;;;;;;;5045550;28;1146;-82
2022/01/01 00:32:21;;;;;;;;;;;;;;;;;;5008092;28;1894;-81
2022/01/01 00:53:21;;;;;;;;;;;;;;;;;;5006100;28;1871;-83
2022/01/01 00:56:18;;;;;;;;;;;;;;;;;;4969346;28;1439;-82
2022/01/01 00:58:47;;;;;;;;;;;;;;;;;;4981742;28;1299;-81
2022/01/01 01:01:15;;;;;;;;;;;;;;;;;;4969470;28;1209;-83
2022/01/01 01:03:47;;;;;;;;;;;;;;;;;;5039394;28;1287;-81
2022/01/01 01:06:15;;;;;;;;;;;;;;;;;;4998130;28;1181;-82
2022/01/01 01:08:41;;;;;;;;;;;;;;;;;;5018165;28;1312;-78
2022/01/01 01:11:08;;;;;;;;;;;;;;;;;;5006464;28;1212;-80
2022/01/01 01:13:34;;;;;;;;;;;;;;;;;;4990603;28;1910;-81
2022/01/01 01:16:00;;;;;;;;;;;;;;;;;;5018058;28;1201;-79
2022/01/01 01:18:25;;;;;;;;;;;;;;;;;;5024494;28;1236;-81
2022/01/01 01:20:51;;;;;;;;;;;;;;;;;;5024911;28;1165;-79
2022/01/01 01:23:16;;;;;;;;;;;;;;;;;;5004173;28;1292;-81
2022/01/01 01:25:41;;;;;;;;;;;;;;;;;;5016875;28;1378;-81
2022/01/01 01:28:08;;;;;;;;;;;;;;;;;;5049623;28;1236;-80
2022/01/01 01:30:34;;;;;;;;;;;;;;;;;;5068270;28;1219;-80
2022/01/01 01:32:59;;;;;;;;;;;;;;;;;;5067756;28;1967;-79
2022/01/01 01:35:24;;;;;;;;;;;;;;;;;;5062972;28;1317;-79
2022/01/01 01:37:49;;;;;;;;;;;;;;;;;;5079854;28;1207;-80
2022/01/01 01:40:15;;;;;;;;;;;;;;;;;;5068323;28;1173;-81
2022/01/01 01:42:43;;;;;;;;;;;;;;;;;;5071042;28;1136;-82
2022/01/01 01:45:14;;;;;;;;;;;;;;;;;;5046636;28;1157;-80
2022/01/01 01:47:40;;;;;;;;;;;;;;;;;;5068418;28;1109;-80
2022/01/01 01:50:07;;;;;;;;;;;;;;;;;;5036785;28;1347;-81
2022/01/01 01:52:35;;;;;;;;;;;;;;;;;;5055829;28;1894;-79
2022/01/01 01:55:01;;;;;;;;;;;;;;;;;;5072083;28;1065;-81
2022/01/01 01:57:27;;;;;;;;;;;;;;;;;;5074885;28;1168;-81
2022/01/01 01:59:53;;;;;;;;;;;;;;;;;;5111969;27;1037;-83
2022/01/01 02:02:18;;;;;;;;;;;;;;;;;;5121116;27;1211;-82
2022/01/01 02:04:43;;;;;;;;;;;;;;;;;;5101224;27;1152;-81
2022/01/01 02:07:09;;;;;;;;;;;;;;;;;;5115473;27;1155;-82
2022/01/01 02:09:35;;;;;;;;;;;;;;;;;;5114824;27;1218;-81
2022/01/01 02:12:04;;;;;;;;;;;;;;;;;;5112024;27;1963;-82
2022/01/01 02:14:51;;;;;;;;;;;;;;;;;;5106788;27;1164;-82
2022/01/01 02:17:17;;;;;;;;;;;;;;;;;;5100310;27;1198;-82
2022/01/01 02:19:55;;;;;;;;;;;;;;;;;;5091998;28;1326;-82
2022/01/01 02:22:21;;;;;;;;;;;;;;;;;;5092988;27;1200;-82
2022/01/01 02:24:47;;;;;;;;;;;;;;;;;;5111050;27;1431;-81
2022/01/01 02:27:12;;;;;;;;;;;;;;;;;;5111277;27;1108;-81
2022/01/01 02:29:38;;;;;;;;;;;;;;;;;;5113425;27;1143;-81
2022/01/01 02:32:07;;;;;;;;;;;;;;;;;;5096005;28;1901;-82
2022/01/01 02:34:32;;;;;;;;;;;;;;;;;;5123721;27;1124;-82
2022/01/01 02:36:57;;;;;;;;;;;;;;;;;;5118903;27;1297;-81
2022/01/01 02:39:23;;;;;;;;;;;;;;;;;;5109393;27;1163;-82
2022/01/01 02:41:57;;;;;;;;;;;;;;;;;;5123081;27;1135;-81
2022/01/01 02:44:23;;;;;;;;;;;;;;;;;;5113170;27;1189;-81
2022/01/01 02:46:49;;;;;;;;;;;;;;;;;;5091067;28;1195;-81
2022/01/01 02:49:17;;;;;;;;;;;;;;;;;;5116344;27;1140;-81
2022/01/01 02:51:42;;;;;;;;;;;;;;;;;;5110223;27;1940;-81
2022/01/01 02:54:08;;;;;;;;;;;;;;;;;;5123826;27;1143;-81
2022/01/01 02:56:34;;;;;;;;;;;;;;;;;;5095488;27;1202;-81
2022/01/01 02:58:59;;;;;;;;;;;;;;;;;;5108159;27;1195;-80
2022/01/01 03:01:25;;;;;;;;;;;;;;;;;;5114339;27;1302;-80
2022/01/01 03:03:56;;;;;;;;;;;;;;;;;;5094577;27;1407;-81
2022/01/01 03:06:21;;;;;;;;;;;;;;;;;;5103229;27;1310;-81
2022/01/01 03:08:48;;;;;;;;;;;;;;;;;;5070987;28;1266;-82
2022/01/01 03:11:13;;;;;;;;;;;;;;;;;;5110713;27;1198;-81
2022/01/01 03:13:38;;;;;;;;;;;;;;;;;;5108655;28;1906;-81
2022/01/01 03:16:04;;;;;;;;;;;;;;;;;;5126385;27;1136;-81
2022/01/01 03:18:29;;;;;;;;;;;;;;;;;;5111487;27;1193;-81
2022/01/01 03:20:57;;;;;;;;;;;;;;;;;;5116708;27;1183;-82
2022/01/01 03:23:23;;;;;;;;;;;;;;;;;;5123834;27;1182;-82
2022/01/01 03:25:48;;;;;;;;;;;;;;;;;;5129034;27;1221;-82
2022/01/01 03:28:13;;;;;;;;;;;;;;;;;;5091086;27;1080;-82
2022/01/01 03:30:39;;;;;;;;;;;;;;;;;;5087720;27;1176;-81
2022/01/01 03:33:05;;;;;;;;;;;;;;;;;;5094039;27;1955;-81
2022/01/01 03:35:30;;;;;;;;;;;;;;;;;;5123525;27;1124;-82
2022/01/01 03:37:59;;;;;;;;;;;;;;;;;;5089613;28;1059;-82
2022/01/01 03:40:24;;;;;;;;;;;;;;;;;;5074649;27;1231;-81
2022/01/01 03:42:49;;;;;;;;;;;;;;;;;;5086023;27;1228;-81
2022/01/01 03:45:15;;;;;;;;;;;;;;;;;;5098594;28;1168;-82
2022/01/01 03:47:40;;;;;;;;;;;;;;;;;;5089649;28;1231;-81
2022/01/01 03:50:05;;;;;;;;;;;;;;;;;;5104102;28;1195;-82
2022/01/01 03:52:31;;;;;;;;;;;;;;;;;;5089856;27;1878;-82
2022/01/01 03:55:08;;;;;;;;;;;;;;;;;;5098647;28;1352;-81
2022/01/01 03:57:53;;;;;;;;;;;;;;;;;;5065292;28;1355;-81
2022/01/01 04:00:19;;;;;;;;;;;;;;;;;;5064470;28;1054;-81
2022/01/01 04:02:47;;;;;;;;;;;;;;;;;;5048384;28;1185;-81
2022/01/01 04:05:23;;;;;;;;;;;;;;;;;;5028520;28;1178;-81
2022/01/01 04:07:51;;;;;;;;;;;;;;;;;;5058413;28;1105;-81
2022/01/01 04:10:17;;;;;;;;;;;;;;;;;;5047087;28;1331;-81
2022/01/01 04:12:42;;;;;;;;;;;;;;;;;;5048137;28;1906;-81
2022/01/01 04:15:07;;;;;;;;;;;;;;;;;;5064955;28;1073;-82
2022/01/01 04:17:36;;;;;;;;;;;;;;;;;;5067460;28;1097;-81
2022/01/01 04:20:05;;;;;;;;;;;;;;;;;;5046005;28;1344;-82
2022/01/01 04:22:30;;;;;;;;;;;;;;;;;;5068041;28;1168;-82
2022/01/01 04:24:56;;;;;;;;;;;;;;;;;;5041611;28;1148;-83
2022/01/01 04:27:21;;;;;;;;;;;;;;;;;;5030948;28;1229;-82
2022/01/01 04:29:46;;;;;;;;;;;;;;;;;;5049257;28;1200;-81
2022/01/01 04:32:14;;;;;;;;;;;;;;;;;;5065855;28;1893;-81
2022/01/01 04:34:39;;;;;;;;;;;;;;;;;;5030547;28;1358;-81
2022/01/01 04:37:11;;;;;;;;;;;;;;;;;;5046377;28;1326;-81
2022/01/01 04:39:36;;;;;;;;;;;;;;;;;;5047065;28;1189;-82
2022/01/01 04:42:11;;;;;;;;;;;;;;;;;;5048974;28;1184;-81
2022/01/01 04:44:36;;;;;;;;;;;;;;;;;;5046527;28;1167;-81
2022/01/01 04:47:05;;;;;;;;;;;;;;;;;;5031368;28;1219;-81
2022/01/01 04:49:30;;;;;;;;;;;;;;;;;;5045826;28;1232;-81
2022/01/01 04:51:55;;;;;;;;;;;;;;;;;;5048037;28;1906;-81
2022/01/01 04:54:24;;;;;;;;;;;;;;;;;;5028375;28;1214;-81
2022/01/01 04:56:49;;;;;;;;;;;;;;;;;;5051711;28;1298;-81
2022/01/01 04:59:18;;;;;;;;;;;;;;;;;;5047096;28;1292;-82
2022/01/01 05:01:44;;;;;;;;;;;;;;;;;;5048610;28;1142;-82
2022/01/01 05:04:17;;;;;;;;;;;;;;;;;;5063954;28;1208;-82
2022/01/01 05:06:48;;;;;;;;;;;;;;;;;;5034364;28;1197;-81
2022/01/01 05:09:14;;;;;;;;;;;;;;;;;;5072407;28;1140;-82
2022/01/01 05:11:39;;;;;;;;;;;;;;;;;;5063018;28;1190;-81
2022/01/01 05:14:11;;;;;;;;;;;;;;;;;;5064178;28;1906;-82
2022/01/01 05:16:51;;;;;;;;;;;;;;;;;;5047753;28;1150;-82
2022/01/01 05:19:17;;;;;;;;;;;;;;;;;;5060684;28;1302;-81
2022/01/01 05:21:42;;;;;;;;;;;;;;;;;;5067927;28;1217;-82
2022/01/01 05:24:17;;;;;;;;;;;;;;;;;;5065379;28;1263;-81
2022/01/01 05:26:43;;;;;;;;;;;;;;;;;;5066774;28;1251;-80
2022/01/01 05:29:11;;;;;;;;;;;;;;;;;;5054394;28;1244;-80
2022/01/01 05:31:36;;;;;;;;;;;;;;;;;;5047140;28;1260;-80
2022/01/01 05:34:03;;;;;;;;;;;;;;;;;;5066202;28;1953;-80
2022/01/01 05:36:28;;;;;;;;;;;;;;;;;;5064350;28;1125;-80
2022/01/01 05:38:54;;;;;;;;;;;;;;;;;;5050169;28;1187;-80
2022/01/01 05:41:19;;;;;;;;;;;;;;;;;;5050326;28;1523;-82
2022/01/01 05:43:48;;;;;;;;;;;;;;;;;;5037431;28;1233;-82
2022/01/01 05:46:23;;;;;;;;;;;;;;;;;;5067691;28;1260;-81
2022/01/01 05:49:20;;;;;;;;;;;;;;;;;;5050677;28;1372;-81
2022/01/01 05:51:37;;;;;;;;;;;;;;;;;;5060689;28;1042;-81
2022/01/01 05:54:02;;;;;;;;;;;;;;;;;;5034989;28;1898;-81
2022/01/01 05:56:30;;;;;;;;;;;;;;;;;;5047098;28;1451;-81
2022/01/01 05:58:56;;;;;;;;;;;;;;;;;;5067907;28;1156;-81
2022/01/01 06:01:21;;;;;;;;;;;;;;;;;;5066914;28;1275;-82
2022/01/01 06:03:46;;;;;;;;;;;;;;;;;;5067101;28;1227;-82
2022/01/01 06:06:18;;;;;;;;;;;;;;;;;;5064996;28;1168;-82
2022/01/01 06:08:49;;;;;;;;;;;;;;;;;;5084886;28;1093;-82
2022/01/01 06:11:14;;;;;;;;;;;;;;;;;;5049858;28;1238;-81
2022/01/01 06:13:39;;;;;;;;;;;;;;;;;;5067444;28;1961;-81
2022/01/01 06:16:04;;;;;;;;;;;;;;;;;;5051131;28;1177;-82
2022/01/01 06:18:30;;;;;;;;;;;;;;;;;;5067084;28;1181;-80
2022/01/01 06:20:56;;;;;;;;;;;;;;;;;;5065308;28;1241;-82
2022/01/01 06:23:21;;;;;;;;;;;;;;;;;;5082272;28;1109;-82
2022/01/01 06:25:46;;;;;;;;;;;;;;;;;;5050127;28;1456;-82
2022/01/01 06:28:15;;;;;;;;;;;;;;;;;;5065150;28;1173;-82
2022/01/01 06:30:40;;;;;;;;;;;;;;;;;;5064713;28;1331;-81
2022/01/01 06:33:24;;;;;;;;;;;;;;;;;;5050384;28;1953;-82
2022/01/01 06:35:49;;;;;;;;;;;;;;;;;;5087546;28;1153;-82
2022/01/01 06:38:17;;;;;;;;;;;;;;;;;;5066842;28;1141;-82
2022/01/01 06:40:44;;;;;;;;;;;;;;;;;;5070211;28;1402;-81
2022/01/01 06:43:10;;;;;;;;;;;;;;;;;;5054153;28;1279;-82
2022/01/01 06:45:35;;;;;;;;;;;;;;;;;;5068869;28;1551;-81
2022/01/01 06:48:01;;;;;;;;;;;;;;;;;;5069955;28;1212;-82
2022/01/01 06:50:27;;;;;;;;;;;;;;;;;;5082825;28;1058;-82
2022/01/01 06:52:52;;;;;;;;;;;;;;;;;;5084348;28;1953;-82
2022/01/01 06:55:26;;;;;;;;;;;;;;;;;;5068337;28;1300;-82
2022/01/01 06:57:51;;;;;;;;;;;;;;;;;;5068320;28;1366;-79
2022/01/01 07:00:19;;;;;;;;;;;;;;;;;;5086876;28;1274;-81
2022/01/01 07:02:46;;;;;;;;;;;;;;;;;;5070215;28;1516;-81
2022/01/01 07:05:11;;;;;;;;;;;;;;;;;;5067885;28;1219;-81
2022/01/01 07:07:37;;;;;;;;;;;;;;;;;;5068919;28;1161;-81
2022/01/01 07:10:03;;;;;;;;;;;;;;;;;;5065329;28;1305;-81
2022/01/01 07:12:29;;;;;;;;;;;;;;;;;;5069024;28;1901;-81
2022/01/01 07:14:54;;;;;;;;;;;;;;;;;;5069356;28;1307;-82
2022/01/01 07:17:22;;;;;;;;;;;;;;;;;;5050493;28;1197;-79
2022/01/01 07:19:47;;;;;;;;;;;;;;;;;;5051328;28;1647;-83
2022/01/01 07:22:13;;;;;;;;;;;;;;;;;;5052374;28;1436;-81
2022/01/01 07:24:39;;;;;;;;;;;;;;;;;;5066040;28;1138;-82
2022/01/01 07:27:04;;;;;;;;;;;;;;;;;;5068460;28;1655;-82
2022/01/01 07:29:31;;;;;;;;;;;;;;;;;;5050970;28;1668;-80
2022/01/01 07:31:56;;;;;;;;;;;;;;;;;;5069517;28;1941;-80
2022/01/01 07:34:30;;;;;;;;;;;;;;;;;;5049572;28;1483;-83
2022/01/01 07:36:55;;;;;;;;;;;;;;;;;;5070085;28;1207;-80
2022/01/01 07:39:21;;;;;;;;;;;;;;;;;;5066874;28;1305;-82
2022/01/01 07:41:47;;;;;;;;;;;;;;;;;;5070638;28;1322;-81
2022/01/01 07:44:15;;;;;;;;;;;;;;;;;;5086672;28;1164;-83
2022/01/01 07:46:40;;;;;;;;;;;;;;;;;;5068859;28;1393;-81
2022/01/01 07:49:35;;;;;;;;;;;;;;;;;;5069335;28;1184;-81
2022/01/01 07:52:00;;;;;;;;;;;;;;;;;;5063705;28;1902;-82
2022/01/01 07:54:26;;;;;;;;;;;;;;;;;;5084477;28;1200;-81
2022/01/01 07:56:51;;;;;;;;;;;;;;;;;;5070158;28;1225;-81
2022/01/01 07:59:43;;;;;;;;;;;;;;;;;;5058503;28;1235;-82
2022/01/01 08:02:08;;;;;;;;;;;;;;;;;;5036948;28;1334;-83
2022/01/01 08:04:34;;;;;;;;;;;;;;;;;;5057091;28;1111;-82
2022/01/01 08:07:01;;;;;;;;;;;;;;;;;;5066265;28;1325;-81
2022/01/01 08:09:26;;;;;;;;;;;;;;;;;;5051072;28;1365;-81
2022/01/01 08:11:53;;;;;;;;;;;;;;;;;;5045506;28;1991;-81
2022/01/01 08:14:18;;;;;;;;;;;;;;;;;;5053903;28;1219;-78
2022/01/01 08:16:56;;;;;;;;;;;;;;;;;;5046465;28;1067;-82
2022/01/01 08:19:24;;;;;;;;;;;;;;;;;;5046344;28;1467;-80
2022/01/01 08:21:50;;;;;;;;;;;;;;;;;;5071490;28;1145;-81
2022/01/01 08:24:16;;;;;;;;;;;;;;;;;;5056145;28;1322;-81
2022/01/01 08:26:41;;;;;;;;;;;;;;;;;;5037337;28;1212;-81
2022/01/01 08:29:09;;;;;;;;;;;;;;;;;;5030256;28;1233;-82
2022/01/01 08:31:34;;;;;;;;;;;;;;;;;;5030554;28;1276;-86
2022/01/01 08:33:59;;;;;;;;;;;;;;;;;;5047436;28;1955;-84
2022/01/01 08:36:28;;;;;;;;;;;;;;;;;;5071485;28;1224;-83
2022/01/01 08:38:53;;;;;;;;;;;;;;;;;;5065774;28;1154;-84
2022/01/01 08:41:18;;;;;;;;;;;;;;;;;;5066833;28;1169;-84
2022/01/01 08:43:44;;;;;;;;;;;;;;;;;;5066040;28;1160;-85
2022/01/01 08:46:10;;;;;;;;;;;;;;;;;;5050885;28;1148;-86
2022/01/01 08:48:35;;;;;;;;;;;;;;;;;;5065685;28;1045;-84
2022/01/01 08:51:21;;;;;;;;;;;;;;;;;;5035019;28;1305;-83
2022/01/01 08:53:47;;;;;;;;;;;;;;;;;;5055532;28;1882;-85
2022/01/01 08:56:12;;;;;;;;;;;;;;;;;;5032819;28;1390;-82
2022/01/01 08:58:39;;;;;;;;;;;;;;;;;;5053481;28;1194;-83
2022/01/01 09:01:05;;;;;;;;;;;;;;;;;;5065257;28;1335;-83
2022/01/01 09:03:30;;;;;;;;;;;;;;;;;;5047864;28;1317;-80
2022/01/01 09:05:55;;;;;;;;;;;;;;;;;;5059001;28;1149;-81
2022/01/01 09:08:21;;;;;;;;;;;;;;;;;;5079590;28;1141;-79
2022/01/01 09:10:46;;;;;;;;;;;;;;;;;;5065419;28;1235;-80
2022/01/01 09:13:11;;;;;;;;;;;;;;;;;;5049803;28;1918;-78
2022/01/01 09:15:36;;;;;;;;;;;;;;;;;;5062421;28;1122;-80
2022/01/01 09:18:02;;;;;;;;;;;;;;;;;;5085322;28;1215;-79
2022/01/01 09:20:33;;;;;;;;;;;;;;;;;;5096985;28;1211;-78
2022/01/01 09:22:58;;;;;;;;;;;;;;;;;;5046261;28;1137;-80
2022/01/01 09:25:23;;;;;;;;;;;;;;;;;;5066915;28;1153;-78
2022/01/01 09:27:49;;;;;;;;;;;;;;;;;;5087802;28;1234;-80
2022/01/01 09:30:14;;;;;;;;;;;;;;;;;;5076381;28;1645;-80
2022/01/01 09:32:43;;;;;;;;;;;;;;;;;;5075306;28;1959;-79
2022/01/01 09:35:08;;;;;;;;;;;;;;;;;;5047672;28;1145;-80
2022/01/01 09:37:34;;;;;;;;;;;;;;;;;;5084516;28;1204;-79
2022/01/01 09:40:00;;;;;;;;;;;;;;;;;;5047079;28;1311;-79
2022/01/01 09:42:25;;;;;;;;;;;;;;;;;;5068085;28;1345;-79
2022/01/01 09:44:53;;;;;;;;;;;;;;;;;;5068343;28;1153;-80
2022/01/01 09:47:19;;;;;;;;;;;;;;;;;;5082387;28;1144;-78
2022/01/01 09:49:44;;;;;;;;;;;;;;;;;;5064362;28;1235;-79
2022/01/01 09:52:12;;;;;;;;;;;;;;;;;;5086470;28;1905;-78
2022/01/01 09:54:37;;;;;;;;;;;;;;;;;;5062522;28;1290;-79
2022/01/01 09:57:03;;;;;;;;;;;;;;;;;;5083088;28;1260;-79
2022/01/01 09:59:28;;;;;;;;;;;;;;;;;;5064801;28;1165;-79
2022/01/01 10:01:54;;;;;;;;;;;;;;;;;;5046183;28;1208;-79
2022/01/01 10:04:19;;;;;;;;;;;;;;;;;;5045052;28;1310;-78
2022/01/01 10:07:00;;;;;;;;;;;;;;;;;;5045091;28;1263;-79
2022/01/01 10:09:35;;;;;;;;;;;;;;;;;;5047302;28;1413;-80
2022/01/01 10:12:01;;;;;;;;;;;;;;;;;;5049430;28;1964;-79
2022/01/01 10:14:36;;;;;;;;;;;;;;;;;;5049383;28;1236;-80
2022/01/01 10:17:28;;;;;;;;;;;;;;;;;;5050477;28;1174;-79
2022/01/01 10:19:53;;;;;;;;;;;;;;;;;;5058361;28;1108;-80
2022/01/01 10:22:20;;;;;;;;;;;;;;;;;;5050998;28;1153;-79
2022/01/01 10:27:43;;;;;;;;;;;;;;;;;;5067802;28;997;-78
2022/01/01 10:30:29;;;;;;;;;;;;;;;;;;5066748;28;1077;-78
2022/01/01 10:33:00;;;;;;;;;;;;;;;;;;5051768;28;1957;-78
2022/01/01 10:35:27;;;;;;;;;;;;;;;;;;5047458;28;1272;-78
2022/01/01 10:37:52;;;;;;;;;;;;;;;;;;5063704;28;1074;-78
2022/01/01 10:40:25;;;;;;;;;;;;;;;;;;5033331;28;1165;-79
2022/01/01 10:42:51;;;;;;;;;;;;;;;;;;5046655;28;1161;-80
2022/01/01 10:45:27;;;;;;;;;;;;;;;;;;5049267;28;1118;-79
2022/01/01 10:48:14;;;;;;;;;;;;;;;;;;5047747;28;1264;-77
2022/01/01 10:50:42;;;;;;;;;;;;;;;;;;5061364;28;1264;-78
2022/01/01 10:53:15;;;;;;;;;;;;;;;;;;5046770;28;1901;-79
2022/01/01 10:55:44;;;;;;;;;;;;;;;;;;5046047;28;1466;-79
2022/01/01 10:58:16;;;;;;;;;;;;;;;;;;5057336;28;1403;-78
2022/01/01 11:00:42;;;;;;;;;;;;;;;;;;5066698;28;1433;-79
2022/01/01 11:03:15;;;;;;;;;;;;;;;;;;5067702;28;1196;-79
2022/01/01 11:05:40;;;;;;;;;;;;;;;;;;5065468;28;1392;-79
2022/01/01 11:08:07;;;;;;;;;;;;;;;;;;5049434;28;1389;-79
2022/01/01 11:10:32;;;;;;;;;;;;;;;;;;5086423;28;1137;-79
2022/01/01 11:12:59;;;;;;;;;;;;;;;;;;5068189;28;1968;-79
2022/01/01 11:15:24;;;;;;;;;;;;;;;;;;5067575;28;1172;-79
2022/01/01 11:17:53;;;;;;;;;;;;;;;;;;5083579;28;1116;-79
2022/01/01 11:20:19;;;;;;;;;;;;;;;;;;5084661;28;1137;-79
2022/01/01 11:22:51;;;;;;;;;;;;;;;;;;5067772;28;1196;-79
2022/01/01 11:25:16;;;;;;;;;;;;;;;;;;5067507;28;1310;-79
2022/01/01 11:27:45;;;;;;;;;;;;;;;;;;5085041;28;1161;-79
2022/01/01 11:30:11;;;;;;;;;;;;;;;;;;5066520;28;1188;-79
2022/01/01 11:33:01;;;;;;;;;;;;;;;;;;5080392;28;1878;-79
2022/01/01 11:35:30;;;;;;;;;;;;;;;;;;5079814;28;1160;-76
2022/01/01 11:38:05;;;;;;;;;;;;;;;;;;5078029;28;1366;-78
2022/01/01 11:40:43;;;;;;;;;;;;;;;;;;5080786;28;1132;-78
2022/01/01 11:43:27;;;;;;;;;;;;;;;;;;5062795;28;1457;-78
2022/01/01 11:45:56;;;;;;;;;;;;;;;;;;5062197;28;1385;-79
2022/01/01 11:48:47;;;;;;;;;;;;;;;;;;5079620;28;1208;-78
2022/01/01 11:51:19;;;;;;;;;;;;;;;;;;5055171;28;1539;-77
2022/01/01 11:54:04;;;;;;;;;;;;;;;;;;5055791;28;1947;-78
2022/01/01 11:57:05;;;;;;;;;;;;;;;;;;5074581;28;1532;-78
2022/01/01 11:59:55;;;;;;;;;;;;;;;;;;5048743;28;1133;-76
2022/01/01 12:02:23;;;;;;;;;;;;;;;;;;5050601;28;1266;-75
2022/01/01 12:04:50;;;;;;;;;;;;;;;;;;5074694;28;1129;-77
2022/01/01 12:07:15;;;;;;;;;;;;;;;;;;5051816;28;1373;-77
2022/01/01 12:09:59;;;;;;;;;;;;;;;;;;5057830;28;1171;-88
2022/01/01 12:12:50;;;;;;;;;;;;;;;;;;5047968;28;1997;-88
2022/01/01 12:15:24;;;;;;;;;;;;;;;;;;5047250;28;1257;-86
2022/01/01 12:18:00;;;;;;;;;;;;;;;;;;5054175;28;1237;-90
2022/01/01 12:20:35;;;;;;;;;;;;;;;;;;5064696;28;1266;-92
2022/01/01 12:23:11;;;;;;;;;;;;;;;;;;5051701;28;1426;-87
2022/01/01 12:25:40;;;;;;;;;;;;;;;;;;5049431;28;1212;-91
2022/01/01 12:28:12;;;;;;;;;;;;;;;;;;5054656;28;1195;-88
2022/01/01 12:30:51;;;;;;;;;;;;;;;;;;5050211;28;1257;-88
2022/01/01 12:34:02;;;;;;;;;;;;;;;;;;5057181;28;1957;-87
2022/01/01 12:36:31;;;;;;;;;;;;;;;;;;5034144;28;1359;-87
2022/01/01 12:38:59;;;;;;;;;;;;;;;;;;5052416;28;1373;-86
2022/01/01 12:41:30;;;;;;;;;;;;;;;;;;5047100;28;1260;-91
2022/01/01 12:43:57;;;;;;;;;;;;;;;;;;5053659;28;1246;-89
2022/01/01 12:46:25;;;;;;;;;;;;;;;;;;5076374;28;1087;-88
2022/01/01 12:48:51;;;;;;;;;;;;;;;;;;5056787;28;1223;-93
2022/01/01 12:51:22;;;;;;;;;;;;;;;;;;5055364;28;1404;-88
2022/01/01 12:53:58;;;;;;;;;;;;;;;;;;5049422;28;1945;-88
2022/01/01 12:56:23;;;;;;;;;;;;;;;;;;5050070;28;1153;-89
2022/01/01 12:58:59;;;;;;;;;;;;;;;;;;5062753;28;1408;-89
2022/01/01 13:01:26;;;;;;;;;;;;;;;;;;5043876;28;1274;-88
2022/01/01 13:03:55;;;;;;;;;;;;;;;;;;5045135;28;1356;-88
2022/01/01 13:06:24;;;;;;;;;;;;;;;;;;5043585;28;1265;-90
2022/01/01 13:09:00;;;;;;;;;;;;;;;;;;5043351;28;1368;-91
2022/01/01 13:11:28;;;;;;;;;;;;;;;;;;5042295;28;1268;-88
2022/01/01 13:13:57;;;;;;;;;;;;;;;;;;5062041;28;1963;-81
2022/01/01 13:16:23;;;;;;;;;;;;;;;;;;5063339;28;1300;-87
2022/01/01 13:18:57;;;;;;;;;;;;;;;;;;5044367;28;1333;-87
2022/01/01 13:21:23;;;;;;;;;;;;;;;;;;5062483;28;1300;-88
2022/01/01 13:23:58;;;;;;;;;;;;;;;;;;5040985;28;1319;-81
2022/01/01 13:26:23;;;;;;;;;;;;;;;;;;5044314;28;1366;-85
2022/01/01 13:29:06;;;;;;;;;;;;;;;;;;5044367;28;1066;-86
2022/01/01 13:31:36;;;;;;;;;;;;;;;;;;5043299;28;1124;-86
2022/01/01 13:34:02;;;;;;;;;;;;;;;;;;5061128;28;1894;-84
2022/01/01 13:36:27;;;;;;;;;;;;;;;;;;5044238;28;1380;-86
2022/01/01 13:38:56;;;;;;;;;;;;;;;;;;5041326;28;1404;-86
2022/01/01 13:41:21;;;;;;;;;;;;;;;;;;5044726;28;1170;-84
2022/01/01 13:43:46;;;;;;;;;;;;;;;;;;5064721;28;1185;-85
2022/01/01 13:46:11;;;;;;;;;;;;;;;;;;5048005;28;1269;-84
2022/01/01 13:48:41;;;;;;;;;;;;;;;;;;5045452;28;1209;-84
2022/01/01 13:51:06;;;;;;;;;;;;;;;;;;5047867;28;1356;-83
2022/01/01 13:53:31;;;;;;;;;;;;;;;;;;5062899;28;2014;-84
2022/01/01 13:55:57;;;;;;;;;;;;;;;;;;5032323;28;1177;-84
2022/01/01 13:58:23;;;;;;;;;;;;;;;;;;5048985;28;1420;-83
2022/01/01 14:00:58;;;;;;;;;;;;;;;;;;5047596;28;1145;-83
2022/01/01 14:03:24;;;;;;;;;;;;;;;;;;5031995;28;1335;-83
2022/01/01 14:05:51;;;;;;;;;;;;;;;;;;5064759;28;1133;-83
2022/01/01 14:08:17;;;;;;;;;;;;;;;;;;5064863;28;1141;-84
2022/01/01 14:10:50;;;;;;;;;;;;;;;;;;5037894;28;1295;-84
2022/01/01 14:13:24;;;;;;;;;;;;;;;;;;5054564;28;1914;-84
2022/01/01 14:16:03;;;;;;;;;;;;;;;;;;5073983;28;1105;-85
2022/01/01 14:18:29;;;;;;;;;;;;;;;;;;5073981;28;1049;-84
2022/01/01 14:21:00;;;;;;;;;;;;;;;;;;5051543;28;1208;-83
2022/01/01 14:23:39;;;;;;;;;;;;;;;;;;;;;
2022/01/01 14:26:13;;;;;;;;;;;;;;;;;;5071915;28;966;-82
2022/01/01 14:28:39;;;;;;;;;;;;;;;;;;5054800;28;1263;-83
2022/01/01 14:31:06;;;;;;;;;;;;;;;;;;5054480;28;1157;-85
2022/01/01 14:33:31;;;;;;;;;;;;;;;;;;5055382;28;1965;-86
2022/01/01 14:36:05;;;;;;;;;;;;;;;;;;5050863;28;1201;-86
2022/01/01 14:38:31;;;;;;;;;;;;;;;;;;5053504;28;1209;-88
2022/01/01 14:41:06;;;;;;;;;;;;;;;;;;5073339;28;1248;-88
2022/01/01 14:43:31;;;;;;;;;;;;;;;;;;5055302;28;1168;-88
2022/01/01 14:46:01;;;;;;;;;;;;;;;;;;5037637;28;1240;-87
2022/01/01 14:48:26;;;;;;;;;;;;;;;;;;5051213;28;1168;-85
2022/01/01 14:51:07;;;;;;;;;;;;;;;;;;5054122;28;1252;-84
2022/01/01 14:53:47;;;;;;;;;;;;;;;;;;5066444;28;1919;-83
2022/01/01 14:56:28;;;;;;;;;;;;;;;;;;5069811;28;1090;-84
2022/01/01 14:59:03;;;;;;;;;;;;;;;;;;5065754;28;1380;-84
2022/01/01 15:01:28;;;;;;;;;;;;;;;;;;5047111;28;1374;-85
2022/01/01 15:03:54;;;;;;;;;;;;;;;;;;5047038;28;1177;-84
2022/01/01 15:06:22;;;;;;;;;;;;;;;;;;5044449;28;1206;-85
2022/01/01 15:08:51;;;;;;;;;;;;;;;;;;5052674;28;1038;-84
2022/01/01 15:11:16;;;;;;;;;;;;;;;;;;5070082;28;1204;-84
2022/01/01 15:13:42;;;;;;;;;;;;;;;;;;5070740;28;1910;-86
2022/01/01 15:16:09;;;;;;;;;;;;;;;;;;5050844;28;1326;-86
2022/01/01 15:18:35;;;;;;;;;;;;;;;;;;5071316;28;1117;-86
2022/01/01 15:21:14;;;;;;;;;;;;;;;;;;5052189;28;1217;-85
2022/01/01 15:23:41;;;;;;;;;;;;;;;;;;5069817;28;1149;-85
2022/01/01 15:26:09;;;;;;;;;;;;;;;;;;5068991;28;1161;-85
2022/01/01 15:28:34;;;;;;;;;;;;;;;;;;5069541;28;1169;-86
2022/01/01 15:31:21;;;;;;;;;;;;;;;;;;5035030;28;1443;-86
2022/01/01 15:33:46;;;;;;;;;;;;;;;;;;5050997;28;1995;-86
2022/01/01 15:36:26;;;;;;;;;;;;;;;;;;5050455;28;1204;-85
2022/01/01 15:38:57;;;;;;;;;;;;;;;;;;5068331;28;1122;-85
2022/01/01 15:43:49;;;;;;;;;;;;;;;;;;5069834;28;1149;-86
2022/01/01 15:46:15;;;;;;;;;;;;;;;;;;5068484;28;1120;-85
2022/01/01 15:48:40;;;;;;;;;;;;;;;;;;5052114;28;1189;-84
2022/01/01 15:51:09;;;;;;;;;;;;;;;;;;5051520;28;1330;-84
2022/01/01 15:53:36;;;;;;;;;;;;;;;;;;5047615;28;1882;-85
2022/01/01 15:56:12;;;;;;;;;;;;;;;;;;5050173;28;1255;-86
2022/01/01 15:58:55;;;;;;;;;;;;;;;;;;5077662;28;1248;-86
2022/01/01 16:01:39;;;;;;;;;;;;;;;;;;5086912;28;1311;-84
2022/01/01 16:04:23;;;;;;;;;;;;;;;;;;5072985;28;1156;-84
2022/01/01 16:06:56;;;;;;;;;;;;;;;;;;5061640;28;1318;-84
2022/01/01 16:09:26;;;;;;;;;;;;;;;;;;5049287;28;1259;-81
2022/01/01 16:11:51;;;;;;;;;;;;;;;;;;5074292;28;1157;-84
2022/01/01 16:14:21;;;;;;;;;;;;;;;;;;5049419;28;1906;-81
2022/01/01 16:16:49;;;;;;;;;;;;;;;;;;5060195;28;1234;-82
2022/01/01 16:19:17;;;;;;;;;;;;;;;;;;5055610;28;1219;-80
2022/01/01 16:21:59;;;;;;;;;;;;;;;;;;5079740;28;1199;-83
2022/01/01 16:24:26;;;;;;;;;;;;;;;;;;5048044;28;1485;-81
2022/01/01 16:26:53;;;;;;;;;;;;;;;;;;5046150;28;1263;-83
2022/01/01 16:29:19;;;;;;;;;;;;;;;;;;5057416;28;1311;-80
2022/01/01 16:31:45;;;;;;;;;;;;;;;;;;5066769;28;1255;-81
2022/01/01 16:34:14;;;;;;;;;;;;;;;;;;5074794;28;1967;-82
2022/01/01 16:36:39;;;;;;;;;;;;;;;;;;5049263;28;1208;-81
2022/01/01 16:39:04;;;;;;;;;;;;;;;;;;5056486;28;1184;-82
2022/01/01 16:41:33;;;;;;;;;;;;;;;;;;5031562;28;1210;-82
2022/01/01 16:43:58;;;;;;;;;;;;;;;;;;5047334;28;1212;-83
2022/01/01 16:46:42;;;;;;;;;;;;;;;;;;5071447;28;1145;-82
2022/01/01 16:49:19;;;;;;;;;;;;;;;;;;5058577;28;1132;-82
2022/01/01 16:51:49;;;;;;;;;;;;;;;;;;5039950;28;1337;-83
2022/01/01 16:54:16;;;;;;;;;;;;;;;;;;5072582;28;1922;-81
2022/01/01 16:56:43;;;;;;;;;;;;;;;;;;5059120;28;1250;-83
2022/01/01 16:59:15;;;;;;;;;;;;;;;;;;5055772;28;1430;-83
2022/01/01 17:01:43;;;;;;;;;;;;;;;;;;5080845;28;1140;-83
2022/01/01 17:04:20;;;;;;;;;;;;;;;;;;5058153;28;1125;-83
2022/01/01 17:09:53;;;;;;;;;;;;;;;;;;5071369;28;1017;-83
2022/01/01 17:12:19;;;;;;;;;;;;;;;;;;5079075;28;1949;-83
2022/01/01 17:14:45;;;;;;;;;;;;;;;;;;5060243;28;1203;-84
2022/01/01 17:17:27;;;;;;;;;;;;;;;;;;5061204;28;1487;-82
2022/01/01 17:20:07;;;;;;;;;;;;;;;;;;5078133;28;1168;-84
2022/01/01 17:25:43;;;;;;;;;;;;;;;;;;5068470;28;1423;-83
2022/01/01 17:28:36;;;;;;;;;;;;;;;;;;5060898;28;1125;-83
2022/01/01 17:31:02;;;;;;;;;;;;;;;;;;5078482;28;1192;-82
2022/01/01 17:33:59;;;;;;;;;;;;;;;;;;5077075;28;1986;-83
2022/01/01 17:36:39;;;;;;;;;;;;;;;;;;5059808;28;1141;-84
2022/01/01 17:41:52;;;;;;;;;;;;;;;;;;5075710;28;986;-83
2022/01/01 17:44:23;;;;;;;;;;;;;;;;;;5060416;28;1259;-82
2022/01/01 17:46:49;;;;;;;;;;;;;;;;;;5059363;28;1317;-83
2022/01/01 17:49:28;;;;;;;;;;;;;;;;;;5061883;28;1153;-82
2022/01/01 17:51:59;;;;;;;;;;;;;;;;;;5059291;28;1627;-83
2022/01/01 17:54:25;;;;;;;;;;;;;;;;;;5044056;28;1910;-82
2022/01/01 17:56:53;;;;;;;;;;;;;;;;;;5058502;28;1089;-83
2022/01/01 17:59:23;;;;;;;;;;;;;;;;;;5057524;28;1369;-81
2022/01/01 18:01:48;;;;;;;;;;;;;;;;;;5078023;28;1093;-82